createdAt,value
2023-03-21T00:01:56.264Z,9.73
2023-03-21T00:04:33.163Z,10.23
2023-03-21T00:07:06.787Z,10.17
2023-03-21T00:09:35.509Z,10.23
2023-03-21T00:12:07.528Z,10.23
2023-03-21T00:14:38.012Z,10.40
2023-03-21T00:17:10.936Z,10.00
2023-03-21T00:19:41.386Z,9.97
2023-03-21T00:22:10.348Z,9.50
2023-03-21T00:24:39.378Z,9.63
2023-03-21T00:27:34.598Z,9.37
2023-03-21T00:29:57.361Z,10.10
2023-03-21T00:32:27.812Z,9.73
2023-03-21T00:35:16.515Z,10.20
2023-03-21T00:37:46.850Z,10.00
2023-03-21T00:40:26.563Z,9.60
2023-03-21T00:42:57.951Z,10.23
2023-03-21T00:45:28.236Z,10.63
2023-03-21T00:47:58.542Z,11.70
2023-03-21T00:50:27.629Z,10.93
2023-03-21T00:52:56.896Z,10.67
2023-03-21T00:55:27.195Z,11.27
2023-03-21T00:58:01.824Z,10.73
2023-03-21T01:00:33.146Z,11.13
2023-03-21T01:03:17.494Z,12.23
2023-03-21T01:06:05.687Z,12.00
2023-03-21T01:08:51.060Z,13.13
2023-03-21T01:11:25.167Z,13.20
2023-03-21T01:14:14.649Z,13.67
2023-03-21T01:16:43.924Z,14.47
2023-03-21T01:19:25.525Z,15.33
2023-03-21T01:21:56.742Z,16.00
2023-03-21T01:24:26.668Z,15.23
2023-03-21T01:26:55.448Z,16.07
2023-03-21T01:29:24.390Z,16.63
2023-03-21T01:31:53.277Z,17.57
2023-03-21T01:34:23.406Z,18.43
2023-03-21T01:36:52.519Z,17.23
2023-03-21T01:39:23.213Z,17.70
2023-03-21T01:41:52.713Z,17.33
2023-03-21T01:44:27.304Z,17.20
2023-03-21T01:47:11.077Z,17.10
2023-03-21T01:49:46.995Z,16.40
2023-03-21T01:52:37.840Z,17.13
2023-03-21T01:55:16.215Z,15.60
2023-03-21T01:58:05.816Z,17.37
2023-03-21T02:00:56.950Z,16.37
2023-03-21T02:03:38.459Z,18.60
2023-03-21T02:06:41.477Z,17.07
2023-03-21T02:09:24.718Z,16.20
2023-03-21T02:11:56.762Z,16.60
2023-03-21T02:14:33.623Z,14.90
2023-03-21T02:17:19.891Z,15.07
2023-03-21T02:20:51.150Z,15.50
2023-03-21T02:24:02.310Z,15.17
2023-03-21T02:27:07.776Z,12.97
2023-03-21T02:30:49.181Z,14.03
2023-03-21T02:34:42.484Z,12.30
2023-03-21T02:37:37.663Z,10.63
2023-03-21T02:40:16.732Z,8.87
2023-03-21T02:43:05.632Z,8.97
2023-03-21T02:45:46.878Z,9.10
2023-03-21T02:48:31.153Z,8.07
2023-03-21T02:51:07.710Z,8.53
2023-03-21T02:53:45.019Z,8.37
2023-03-21T02:56:14.280Z,8.70
2023-03-21T02:58:49.786Z,8.37
2023-03-21T03:01:18.612Z,8.67
2023-03-21T03:03:50.424Z,8.30
2023-03-21T03:06:27.930Z,8.30
2023-03-21T03:09:25.552Z,8.87
2023-03-21T03:12:10.720Z,9.07
2023-03-21T03:15:02.973Z,9.23
2023-03-21T03:17:52.896Z,9.03
2023-03-21T03:20:37.446Z,8.47
2023-03-21T03:23:19.793Z,8.27
2023-03-21T03:25:58.026Z,9.03
2023-03-21T03:28:34.392Z,8.90
2023-03-21T03:31:09.692Z,8.70
2023-03-21T03:33:59.322Z,8.40
2023-03-21T03:36:39.370Z,9.07
2023-03-21T03:39:18.013Z,8.30
2023-03-21T03:42:12.482Z,9.20
2023-03-21T03:44:47.568Z,9.27
2023-03-21T03:47:32.731Z,8.93
2023-03-21T03:50:13.389Z,8.53
2023-03-21T03:52:56.107Z,8.97
2023-03-21T03:55:34.502Z,8.67
2023-03-21T03:58:21.735Z,9.20
2023-03-21T04:00:52.325Z,8.43
2023-03-21T04:03:21.476Z,8.70
2023-03-21T04:05:50.831Z,8.27
2023-03-21T04:08:20.140Z,8.50
2023-03-21T04:10:54.467Z,8.47
2023-03-21T04:13:25.945Z,9.13
2023-03-21T04:16:05.292Z,8.67
2023-03-21T04:18:34.169Z,7.90
2023-03-21T04:21:03.667Z,9.40
2023-03-21T04:23:33.302Z,8.27
2023-03-21T04:26:02.018Z,9.50
2023-03-21T04:28:39.885Z,9.07
2023-03-21T04:31:28.688Z,8.57
2023-03-21T04:34:09.967Z,8.73
2023-03-21T04:36:44.725Z,7.70
2023-03-21T04:39:14.078Z,7.27
2023-03-21T04:41:46.829Z,7.47
2023-03-21T04:44:19.040Z,6.83
2023-03-21T04:46:48.563Z,7.03
2023-03-21T04:49:18.564Z,6.90
2023-03-21T04:51:47.388Z,6.70
2023-03-21T04:54:21.111Z,6.93
2023-03-21T04:56:52.086Z,6.73
2023-03-21T04:59:22.292Z,6.67
2023-03-21T05:01:52.011Z,6.37
2023-03-21T05:04:22.843Z,6.87
2023-03-21T05:06:54.248Z,6.33
2023-03-21T05:09:23.328Z,6.07
2023-03-21T05:11:55.066Z,5.77
2023-03-21T05:14:28.578Z,6.70
2023-03-21T05:16:57.953Z,6.63
2023-03-21T05:19:35.213Z,6.77
2023-03-21T05:22:09.261Z,6.80
2023-03-21T05:24:42.075Z,12.00
2023-03-21T05:27:34.323Z,14.00
2023-03-21T05:30:10.763Z,9.20
2023-03-21T05:32:39.806Z,7.17
2023-03-21T05:35:12.498Z,6.90
2023-03-21T05:37:43.137Z,7.67
2023-03-21T05:40:13.867Z,7.73
2023-03-21T05:42:47.182Z,6.70
2023-03-21T05:45:24.732Z,7.60
2023-03-21T05:47:53.854Z,8.37
2023-03-21T05:50:28.161Z,8.23
2023-03-21T05:53:13.937Z,7.97
2023-03-21T05:55:48.888Z,8.27
2023-03-21T05:58:40.709Z,8.77
2023-03-21T06:01:12.789Z,8.20
2023-03-21T06:03:46.449Z,10.87
2023-03-21T06:06:19.922Z,9.90
2023-03-21T06:09:06.882Z,8.30
2023-03-21T06:11:38.990Z,9.83
2023-03-21T06:14:27.029Z,9.53
2023-03-21T06:17:16.866Z,8.63
2023-03-21T06:19:58.438Z,11.17
2023-03-21T06:22:32.228Z,32.50
2023-03-21T06:25:02.804Z,27.23
2023-03-21T06:27:33.622Z,12.10
2023-03-21T06:30:02.524Z,13.10
2023-03-21T06:32:39.255Z,7.50
2023-03-21T06:35:19.946Z,6.20
2023-03-21T06:37:49.557Z,6.13
2023-03-21T06:40:26.886Z,7.00
2023-03-21T06:43:27.851Z,5.83
2023-03-21T06:45:56.638Z,6.63
2023-03-21T06:48:28.031Z,6.67
2023-03-21T06:50:57.652Z,6.60
2023-03-21T06:53:30.228Z,7.13
2023-03-21T06:56:17.732Z,7.17
2023-03-21T06:58:47.763Z,7.13
2023-03-21T07:01:31.713Z,7.27
2023-03-21T07:04:09.174Z,7.83
2023-03-21T07:06:38.410Z,6.77
2023-03-21T07:09:07.999Z,7.70
2023-03-21T07:11:38.637Z,7.20
2023-03-21T07:14:10.293Z,7.83
2023-03-21T07:16:40.191Z,7.97
2023-03-21T07:19:10.667Z,7.10
2023-03-21T07:21:39.417Z,7.63
2023-03-21T07:24:08.957Z,7.07
2023-03-21T07:26:37.772Z,7.20
2023-03-21T07:29:07.658Z,6.90
2023-03-21T07:31:36.840Z,7.17
2023-03-21T07:34:06.011Z,7.27
2023-03-21T07:36:37.010Z,6.73
2023-03-21T07:39:06.409Z,7.90
2023-03-21T07:41:35.369Z,7.40
2023-03-21T07:44:15.697Z,7.47
2023-03-21T07:46:44.441Z,7.33
2023-03-21T07:49:13.226Z,7.13
2023-03-21T07:51:43.707Z,7.73
2023-03-21T07:54:13.529Z,7.87
2023-03-21T07:56:42.585Z,7.23
2023-03-21T07:59:11.306Z,6.87
2023-03-21T08:01:40.207Z,7.47
2023-03-21T08:04:09.010Z,6.90
2023-03-21T08:06:37.797Z,6.13
2023-03-21T08:09:07.974Z,6.97
2023-03-21T08:11:36.766Z,7.07
2023-03-21T08:14:05.512Z,6.30
2023-03-21T08:16:34.283Z,6.37
2023-03-21T08:19:03.101Z,5.43
2023-03-21T08:21:31.846Z,5.27
2023-03-21T08:24:00.527Z,5.43
2023-03-21T08:26:32.524Z,5.43
2023-03-21T08:29:01.349Z,5.23
2023-03-21T08:31:30.056Z,5.80
2023-03-21T08:33:58.944Z,5.00
2023-03-21T08:36:27.671Z,5.63
2023-03-21T08:38:57.250Z,4.50
2023-03-21T08:41:26.473Z,4.03
2023-03-21T08:43:56.838Z,4.00
2023-03-21T08:46:25.770Z,4.37
2023-03-21T08:48:57.521Z,4.50
2023-03-21T08:51:26.258Z,4.57
2023-03-21T08:53:54.994Z,4.33
2023-03-21T08:56:23.656Z,4.23
2023-03-21T08:58:52.366Z,4.10
2023-03-21T09:01:22.409Z,3.80
2023-03-21T09:03:51.135Z,4.57
2023-03-21T09:06:19.831Z,4.23
2023-03-21T09:08:48.473Z,4.23
2023-03-21T09:11:17.222Z,3.50
2023-03-21T09:13:46.209Z,3.87
2023-03-21T09:16:14.995Z,4.07
2023-03-21T09:18:49.633Z,3.83
2023-03-21T09:21:20.454Z,4.70
2023-03-21T09:23:52.811Z,4.23
2023-03-21T09:26:21.782Z,3.90
2023-03-21T09:28:51.308Z,4.03
2023-03-21T09:31:22.999Z,3.90
2023-03-21T09:33:56.001Z,3.90
2023-03-21T09:36:27.296Z,3.87
2023-03-21T09:38:57.061Z,3.93
2023-03-21T09:41:52.942Z,3.13
2023-03-21T09:44:41.001Z,3.63
2023-03-21T09:47:22.284Z,3.83
2023-03-21T09:50:13.153Z,4.07
2023-03-21T09:52:49.772Z,4.77
2023-03-21T09:55:22.505Z,4.47
2023-03-21T09:58:04.470Z,4.37
2023-03-21T10:00:42.070Z,3.87
2023-03-21T10:03:24.552Z,3.83
2023-03-21T10:05:58.743Z,4.13
2023-03-21T10:08:36.530Z,3.80
2023-03-21T10:11:17.011Z,3.97
2023-03-21T10:13:52.414Z,3.90
2023-03-21T10:16:29.228Z,3.73
2023-03-21T10:18:59.559Z,3.37
2023-03-21T10:21:58.453Z,3.77
2023-03-21T10:24:25.071Z,3.47
2023-03-21T10:26:55.989Z,3.10
2023-03-21T10:29:31.477Z,2.90
2023-03-21T10:32:01.697Z,3.20
2023-03-21T10:34:39.257Z,3.10
2023-03-21T10:37:16.893Z,3.30
2023-03-21T10:39:50.304Z,3.20
2023-03-21T10:42:24.881Z,3.00
2023-03-21T10:44:57.444Z,3.13
2023-03-21T10:47:29.423Z,2.90
2023-03-21T10:50:08.883Z,3.00
2023-03-21T10:52:46.365Z,3.07
2023-03-21T10:55:26.435Z,2.90
2023-03-21T10:58:00.656Z,2.90
2023-03-21T11:00:36.989Z,2.57
2023-03-21T11:03:07.172Z,2.60
2023-03-21T11:05:40.907Z,2.57
2023-03-21T11:08:16.487Z,2.70
2023-03-21T11:10:56.468Z,2.63
2023-03-21T11:13:28.990Z,2.40
2023-03-21T11:16:08.054Z,2.30
2023-03-21T11:18:43.546Z,2.53
2023-03-21T11:21:15.616Z,2.20
2023-03-21T11:23:49.649Z,5.70
2023-03-21T11:26:24.372Z,2.73
2023-03-21T11:28:54.074Z,2.37
2023-03-21T11:31:25.060Z,2.43
2023-03-21T11:33:57.148Z,2.33
2023-03-21T11:36:35.228Z,2.27
2023-03-21T11:39:27.736Z,2.43
2023-03-21T11:41:56.626Z,2.60
2023-03-21T11:44:33.662Z,2.73
2023-03-21T11:47:03.490Z,2.70
2023-03-21T11:49:32.810Z,2.50
2023-03-21T11:52:24.714Z,2.40
2023-03-21T11:55:20.305Z,2.07
2023-03-21T11:58:14.364Z,2.20
2023-03-21T12:00:54.836Z,2.17
2023-03-21T12:04:09.828Z,1.80
2023-03-21T12:06:44.644Z,1.80
2023-03-21T12:09:37.710Z,2.00
2023-03-21T12:12:38.399Z,1.77
2023-03-21T12:15:19.518Z,1.73
2023-03-21T12:18:01.454Z,1.53
2023-03-21T12:20:45.751Z,2.10
2023-03-21T12:23:53.412Z,2.00
2023-03-21T12:26:28.381Z,1.93
2023-03-21T12:29:20.944Z,2.20
2023-03-21T12:32:11.502Z,4.27
2023-03-21T12:35:28.931Z,2.60
2023-03-21T12:38:41.278Z,2.10
2023-03-21T12:41:25.633Z,2.20
2023-03-21T12:44:03.627Z,2.00
2023-03-21T12:46:42.589Z,2.30
2023-03-21T12:49:19.851Z,2.50
2023-03-21T12:51:53.124Z,2.20
2023-03-21T12:54:32.899Z,2.20
2023-03-21T12:57:10.375Z,2.30
2023-03-21T12:59:48.258Z,1.80
2023-03-21T13:02:26.684Z,1.97
2023-03-21T13:05:06.429Z,1.77
2023-03-21T13:07:43.778Z,2.20
2023-03-21T13:10:21.017Z,2.40
2023-03-21T13:13:17.388Z,1.87
2023-03-21T13:16:14.159Z,1.60
2023-03-21T13:19:06.711Z,1.73
2023-03-21T13:21:52.261Z,1.60
2023-03-21T13:24:33.491Z,2.60
2023-03-21T13:27:07.555Z,2.30
2023-03-21T13:29:47.550Z,2.00
2023-03-21T13:32:29.658Z,2.13
2023-03-21T13:35:01.552Z,2.10
2023-03-21T13:37:43.290Z,2.20
2023-03-21T13:40:26.179Z,1.90
2023-03-21T13:42:59.288Z,1.80
2023-03-21T13:45:33.327Z,1.80
2023-03-21T13:48:07.557Z,2.00
2023-03-21T13:50:52.962Z,1.80
2023-03-21T13:53:32.676Z,1.70
2023-03-21T13:56:24.893Z,1.30
2023-03-21T13:59:05.398Z,1.73
2023-03-21T14:02:02.009Z,2.47
2023-03-21T14:04:42.096Z,1.80
2023-03-21T14:07:24.683Z,1.67
2023-03-21T14:09:57.405Z,1.70
2023-03-21T14:12:29.881Z,1.50
2023-03-21T14:15:16.269Z,1.60
2023-03-21T14:17:54.446Z,1.40
2023-03-21T14:20:28.992Z,1.60
2023-03-21T14:22:59.001Z,1.30
2023-03-21T14:25:41.075Z,1.20
2023-03-21T14:28:19.394Z,1.10
2023-03-21T14:30:55.172Z,1.27
2023-03-21T14:33:31.328Z,1.60
2023-03-21T14:36:08.984Z,1.20
2023-03-21T14:38:40.887Z,1.10
2023-03-21T14:41:24.502Z,1.30
2023-03-21T14:44:30.278Z,2.07
2023-03-21T14:47:04.762Z,2.93
2023-03-21T14:49:36.142Z,2.13
2023-03-21T14:52:12.532Z,1.87
2023-03-21T14:54:42.744Z,1.80
2023-03-21T14:57:17.153Z,1.87
2023-03-21T14:59:49.957Z,2.17
2023-03-21T15:02:23.945Z,1.50
2023-03-21T15:04:57.625Z,1.37
2023-03-21T15:07:30.629Z,2.40
2023-03-21T15:10:05.256Z,2.87
2023-03-21T15:12:35.050Z,2.50
2023-03-21T15:15:05.882Z,2.20
2023-03-21T15:17:34.906Z,2.33
2023-03-21T15:20:05.887Z,2.50
2023-03-21T15:22:40.887Z,1.93
2023-03-21T15:25:18.505Z,1.97
2023-03-21T15:27:47.521Z,2.17
2023-03-21T15:30:28.015Z,1.80
2023-03-21T15:32:58.053Z,2.07
2023-03-21T15:35:34.685Z,2.30
2023-03-21T15:38:06.738Z,1.67
2023-03-21T15:40:37.913Z,2.73
2023-03-21T15:43:14.512Z,2.20
2023-03-21T15:45:50.524Z,1.57
2023-03-21T15:48:26.749Z,2.70
2023-03-21T15:51:03.862Z,2.90
2023-03-21T15:53:38.537Z,1.30
2023-03-21T15:56:16.127Z,1.20
2023-03-21T15:58:49.093Z,1.33
2023-03-21T16:01:22.118Z,1.50
2023-03-21T16:03:58.615Z,2.10
2023-03-21T16:06:34.185Z,2.53
2023-03-21T16:09:22.160Z,2.53
2023-03-21T16:11:54.131Z,2.43
2023-03-21T16:14:24.814Z,2.40
2023-03-21T16:16:53.917Z,2.43
2023-03-21T16:19:23.373Z,2.73
2023-03-21T16:21:53.886Z,3.07
2023-03-21T16:24:24.150Z,2.87
2023-03-21T16:26:55.166Z,3.13
2023-03-21T16:29:23.869Z,3.00
2023-03-21T16:31:53.310Z,3.20
2023-03-21T16:34:22.140Z,3.13
2023-03-21T16:36:50.952Z,2.87
2023-03-21T16:39:22.531Z,3.30
2023-03-21T16:41:52.647Z,2.70
2023-03-21T16:44:22.478Z,3.00
2023-03-21T16:46:51.324Z,3.50
2023-03-21T16:49:23.965Z,2.70
2023-03-21T16:51:53.757Z,2.90
2023-03-21T16:54:23.099Z,3.00
2023-03-21T16:56:56.486Z,3.07
2023-03-21T16:59:25.373Z,3.20
2023-03-21T17:01:54.046Z,2.80
2023-03-21T17:04:24.911Z,2.67
2023-03-21T17:06:55.544Z,2.67
2023-03-21T17:09:28.058Z,6.13
2023-03-21T17:11:59.437Z,2.50
2023-03-21T17:14:32.434Z,2.00
2023-03-21T17:17:01.320Z,2.77
2023-03-21T17:19:31.084Z,2.33
2023-03-21T17:21:59.883Z,2.47
2023-03-21T17:24:29.872Z,2.20
2023-03-21T17:27:02.954Z,2.43
2023-03-21T17:29:33.428Z,2.63
2023-03-21T17:32:08.213Z,2.80
2023-03-21T17:34:37.025Z,2.50
2023-03-21T17:37:10.965Z,2.23
2023-03-21T17:39:43.042Z,2.63
2023-03-21T17:42:20.634Z,2.90
2023-03-21T17:44:51.124Z,4.00
2023-03-21T17:47:25.513Z,3.70
2023-03-21T17:49:54.479Z,3.97
2023-03-21T17:52:24.724Z,4.03
2023-03-21T17:54:53.818Z,4.60
2023-03-21T17:57:25.716Z,4.87
2023-03-21T17:59:57.660Z,5.47
2023-03-21T18:02:28.111Z,5.77
2023-03-21T18:04:59.432Z,4.90
2023-03-21T18:08:05.941Z,4.70
2023-03-21T18:10:24.599Z,5.03
2023-03-21T18:12:57.128Z,6.20
2023-03-21T18:15:30.319Z,6.30
2023-03-21T18:18:04.741Z,5.27
2023-03-21T18:23:23.525Z,3.90
2023-03-21T18:25:55.876Z,4.17
2023-03-21T18:28:26.963Z,4.10
2023-03-21T18:31:17.952Z,3.93
2023-03-21T18:33:45.470Z,4.47
2023-03-21T18:36:24.052Z,4.70
2023-03-21T18:38:55.161Z,4.97
2023-03-21T18:41:23.961Z,5.00
2023-03-21T18:44:11.794Z,4.87
2023-03-21T18:46:47.303Z,4.57
2023-03-21T18:52:09.106Z,4.97
2023-03-21T18:54:41.399Z,5.20
2023-03-21T18:57:35.021Z,5.30
2023-03-21T19:00:02.074Z,6.13
2023-03-21T19:02:31.108Z,6.00
2023-03-21T19:04:59.918Z,7.27
2023-03-21T19:07:28.811Z,8.47
2023-03-21T19:10:16.324Z,8.40
2023-03-21T19:12:46.284Z,8.53
2023-03-21T19:15:19.673Z,7.10
2023-03-21T19:29:12.231Z,5.70
2023-03-21T19:31:58.938Z,4.77
2023-03-21T19:34:53.488Z,5.00
2023-03-21T19:37:27.325Z,5.63
2023-03-21T19:39:56.729Z,6.37
2023-03-21T19:45:29.328Z,7.53
2023-03-21T19:48:19.007Z,7.17
2023-03-21T19:51:25.751Z,6.97
2023-03-21T19:53:49.886Z,6.37
2023-03-21T19:56:27.797Z,5.43
2023-03-21T20:02:08.886Z,4.70
2023-03-21T20:04:59.601Z,4.50
2023-03-21T20:07:33.926Z,3.93
2023-03-21T20:10:05.735Z,4.80
2023-03-21T20:12:36.717Z,4.00
2023-03-21T20:15:16.964Z,4.10
2023-03-21T20:17:52.179Z,3.97
2023-03-21T20:20:34.525Z,4.13
2023-03-21T20:23:08.993Z,4.33
2023-03-21T20:25:43.975Z,5.30
2023-03-21T20:28:24.633Z,4.53
2023-03-21T20:30:57.033Z,4.80
2023-03-21T20:33:34.134Z,4.90
2023-03-21T20:36:38.692Z,4.67
2023-03-21T20:38:58.406Z,4.80
2023-03-21T20:41:27.885Z,5.07
2023-03-21T20:44:39.492Z,4.87
2023-03-21T20:46:49.729Z,4.47
2023-03-21T20:49:19.803Z,5.03
2023-03-21T20:54:39.304Z,5.00
2023-03-21T20:57:07.997Z,3.97
2023-03-21T20:59:36.778Z,4.37
2023-03-21T21:02:06.216Z,4.90
2023-03-21T21:04:52.493Z,4.77
2023-03-21T21:07:27.914Z,4.37
2023-03-21T21:09:57.150Z,4.27
2023-03-21T21:12:27.623Z,4.83
2023-03-21T21:14:56.808Z,4.60
2023-03-21T21:18:04.011Z,4.50
2023-03-21T21:20:17.735Z,4.73
2023-03-21T21:22:59.694Z,3.77
2023-03-21T21:25:30.700Z,4.60
2023-03-21T21:28:01.697Z,3.97
2023-03-21T21:30:31.981Z,4.17
2023-03-21T21:33:00.903Z,3.77
2023-03-21T21:35:29.751Z,3.60
2023-03-21T21:37:59.931Z,4.00
2023-03-21T21:40:29.741Z,4.20
2023-03-21T21:43:03.477Z,4.63
2023-03-21T21:45:32.468Z,4.23
2023-03-21T21:48:01.343Z,4.07
2023-03-21T21:50:30.056Z,4.13
2023-03-21T21:53:03.892Z,3.87
2023-03-21T21:55:35.036Z,3.97
2023-03-21T21:58:04.875Z,3.90
2023-03-21T22:00:34.544Z,4.00
2023-03-21T22:03:03.673Z,4.03
2023-03-21T22:05:32.724Z,3.77
2023-03-21T22:08:05.411Z,3.53
2023-03-21T22:10:34.707Z,3.50
2023-03-21T22:13:03.466Z,3.63
2023-03-21T22:15:33.344Z,3.93
2023-03-21T22:18:02.098Z,3.70
2023-03-21T22:20:30.836Z,3.53
2023-03-21T22:23:01.062Z,3.70
2023-03-21T22:25:33.120Z,3.60
2023-03-21T22:28:02.291Z,3.67
2023-03-21T22:30:31.643Z,3.40
2023-03-21T22:33:09.329Z,3.40
2023-03-21T22:35:38.874Z,3.63
2023-03-21T22:38:07.711Z,3.60
2023-03-21T22:40:38.262Z,3.60
2023-03-21T22:43:08.851Z,3.70
2023-03-21T22:45:37.610Z,4.10
2023-03-21T22:48:06.941Z,3.73
2023-03-21T22:50:35.688Z,3.73
2023-03-21T22:53:06.452Z,3.60
2023-03-21T22:55:36.655Z,3.80
2023-03-21T22:58:05.579Z,3.80
2023-03-21T23:00:34.681Z,3.77
2023-03-21T23:03:03.396Z,3.50
2023-03-21T23:05:32.221Z,3.70
2023-03-21T23:08:00.991Z,3.50
2023-03-21T23:10:29.717Z,3.90
2023-03-21T23:12:59.908Z,3.57
2023-03-21T23:15:28.649Z,3.57
2023-03-21T23:17:57.342Z,3.97
2023-03-21T23:20:26.036Z,3.87
2023-03-21T23:22:54.653Z,3.97
2023-03-21T23:25:24.941Z,3.97
2023-03-21T23:27:53.609Z,3.67
2023-03-21T23:30:24.360Z,3.80
2023-03-21T23:32:53.309Z,4.17
2023-03-21T23:35:21.959Z,3.77
2023-03-21T23:37:52.663Z,3.87
2023-03-21T23:40:22.308Z,4.30
2023-03-21T23:42:52.172Z,3.90
2023-03-21T23:45:22.205Z,4.10
2023-03-21T23:47:50.967Z,3.70
2023-03-21T23:50:19.849Z,3.53
2023-03-21T23:52:48.863Z,4.17
2023-03-21T23:55:17.670Z,4.33
2023-03-21T23:57:46.473Z,4.00
